sensor_id;sensor_type;location;lat;lon;timestamp;pressure;altitude;pressure_sealevel;temperature;humidity
18167;BME280;9208;42.688;23.404;2023-04-25T00:02:01;94756.34;;;13.34;100.00
18167;BME280;9208;42.688;23.404;2023-04-25T00:04:29;94757.63;;;13.33;100.00
18167;BME280;9208;42.688;23.404;2023-04-25T00:06:55;94753.44;;;13.21;100.00
18167;BME280;9208;42.688;23.404;2023-04-25T00:09:21;94753.66;;;13.28;100.00
18167;BME280;9208;42.688;23.404;2023-04-25T00:11:46;94743.19;;;13.21;100.00
18167;BME280;9208;42.688;23.404;2023-04-25T00:14:12;94741.72;;;13.20;100.00
18167;BME280;9208;42.688;23.404;2023-04-25T00:16:37;94731.72;;;13.17;100.00
18167;BME280;9208;42.688;23.404;2023-04-25T00:19:03;94722.75;;;13.11;100.00
18167;BME280;9208;42.688;23.404;2023-04-25T00:21:28;94713.25;;;13.12;100.00
18167;BME280;9208;42.688;23.404;2023-04-25T00:23:55;94711.44;;;13.20;100.00
18167;BME280;9208;42.688;23.404;2023-04-25T00:26:20;94706.44;;;13.19;100.00
18167;BME280;9208;42.688;23.404;2023-04-25T00:28:47;94695.22;;;13.17;100.00
18167;BME280;9208;42.688;23.404;2023-04-25T00:31:12;94693.53;;;13.03;100.00
18167;BME280;9208;42.688;23.404;2023-04-25T00:33:38;94688.50;;;13.07;100.00
18167;BME280;9208;42.688;23.404;2023-04-25T00:36:04;94692.53;;;13.06;100.00
18167;BME280;9208;42.688;23.404;2023-04-25T00:38:30;94687.59;;;12.99;100.00
18167;BME280;9208;42.688;23.404;2023-04-25T00:40:56;94680.31;;;12.96;100.00
18167;BME280;9208;42.688;23.404;2023-04-25T00:43:26;94688.56;;;12.96;100.00
18167;BME280;9208;42.688;23.404;2023-04-25T00:45:52;94691.88;;;12.89;100.00
18167;BME280;9208;42.688;23.404;2023-04-25T00:48:17;94682.91;;;12.83;100.00
18167;BME280;9208;42.688;23.404;2023-04-25T00:50:51;94677.13;;;12.86;100.00
18167;BME280;9208;42.688;23.404;2023-04-25T00:53:17;94679.09;;;12.91;100.00
18167;BME280;9208;42.688;23.404;2023-04-25T00:55:42;94678.88;;;12.89;100.00
18167;BME280;9208;42.688;23.404;2023-04-25T00:58:08;94675.09;;;12.92;100.00
18167;BME280;9208;42.688;23.404;2023-04-25T01:00:33;94664.88;;;12.87;100.00
18167;BME280;9208;42.688;23.404;2023-04-25T01:03:00;94671.88;;;12.88;100.00
18167;BME280;9208;42.688;23.404;2023-04-25T01:05:25;94674.84;;;12.90;100.00
18167;BME280;9208;42.688;23.404;2023-04-25T01:07:51;94676.88;;;12.90;100.00
18167;BME280;9208;42.688;23.404;2023-04-25T01:10:17;94681.91;;;12.86;100.00
18167;BME280;9208;42.688;23.404;2023-04-25T01:12:42;94682.09;;;12.93;100.00
18167;BME280;9208;42.688;23.404;2023-04-25T01:15:08;94678.38;;;12.91;100.00
18167;BME280;9208;42.688;23.404;2023-04-25T01:17:34;94656.16;;;12.83;100.00
18167;BME280;9208;42.688;23.404;2023-04-25T01:20:03;94650.69;;;12.78;100.00
18167;BME280;9208;42.688;23.404;2023-04-25T01:22:30;94642.44;;;12.78;100.00
18167;BME280;9208;42.688;23.404;2023-04-25T01:24:56;94653.19;;;12.76;100.00
18167;BME280;9208;42.688;23.404;2023-04-25T01:27:22;94649.94;;;12.77;100.00
18167;BME280;9208;42.688;23.404;2023-04-25T01:29:48;94650.22;;;12.74;100.00
18167;BME280;9208;42.688;23.404;2023-04-25T01:32:15;94647.28;;;12.66;100.00
18167;BME280;9208;42.688;23.404;2023-04-25T01:34:41;94642.00;;;12.68;100.00
18167;BME280;9208;42.688;23.404;2023-04-25T01:37:06;94643.97;;;12.73;100.00
18167;BME280;9208;42.688;23.404;2023-04-25T01:39:32;94645.22;;;12.72;100.00
18167;BME280;9208;42.688;23.404;2023-04-25T01:41:59;94645.47;;;12.74;100.00
18167;BME280;9208;42.688;23.404;2023-04-25T01:44:24;94642.94;;;12.76;100.00
18167;BME280;9208;42.688;23.404;2023-04-25T01:46:50;94654.47;;;12.75;100.00
18167;BME280;9208;42.688;23.404;2023-04-25T01:49:18;94637.72;;;12.73;100.00
18167;BME280;9208;42.688;23.404;2023-04-25T01:51:43;94651.75;;;12.69;100.00
18167;BME280;9208;42.688;23.404;2023-04-25T01:54:10;94655.78;;;12.63;100.00
18167;BME280;9208;42.688;23.404;2023-04-25T01:56:37;94652.03;;;12.60;100.00
18167;BME280;9208;42.688;23.404;2023-04-25T01:59:04;94658.59;;;12.57;100.00
18167;BME280;9208;42.688;23.404;2023-04-25T02:01:29;94666.84;;;12.52;100.00
18167;BME280;9208;42.688;23.404;2023-04-25T02:03:55;94650.16;;;12.44;100.00
18167;BME280;9208;42.688;23.404;2023-04-25T02:06:20;94643.88;;;12.49;100.00
18167;BME280;9208;42.688;23.404;2023-04-25T02:08:46;94644.09;;;12.51;100.00
18167;BME280;9208;42.688;23.404;2023-04-25T02:11:11;94640.38;;;12.49;100.00
18167;BME280;9208;42.688;23.404;2023-04-25T02:13:37;94646.13;;;12.51;100.00
18167;BME280;9208;42.688;23.404;2023-04-25T02:16:02;94640.66;;;12.45;100.00
18167;BME280;9208;42.688;23.404;2023-04-25T02:18:28;94635.16;;;12.45;100.00
18167;BME280;9208;42.688;23.404;2023-04-25T02:20:53;94631.19;;;12.41;100.00
18167;BME280;9208;42.688;23.404;2023-04-25T02:23:19;94626.00;;;12.32;100.00
18167;BME280;9208;42.688;23.404;2023-04-25T02:25:44;94626.03;;;12.26;100.00
18167;BME280;9208;42.688;23.404;2023-04-25T02:28:12;94622.22;;;12.35;100.00
18167;BME280;9208;42.688;23.404;2023-04-25T02:30:38;94617.50;;;12.30;100.00
18167;BME280;9208;42.688;23.404;2023-04-25T02:33:03;94613.31;;;12.18;100.00
18167;BME280;9208;42.688;23.404;2023-04-25T02:35:31;94611.59;;;12.15;100.00
18167;BME280;9208;42.688;23.404;2023-04-25T02:37:57;94612.59;;;12.12;100.00
18167;BME280;9208;42.688;23.404;2023-04-25T02:40:22;94606.41;;;12.06;100.00
18167;BME280;9208;42.688;23.404;2023-04-25T02:42:48;94616.66;;;12.00;100.00
18167;BME280;9208;42.688;23.404;2023-04-25T02:45:13;94617.13;;;12.04;100.00
18167;BME280;9208;42.688;23.404;2023-04-25T02:47:39;94604.66;;;12.03;100.00
18167;BME280;9208;42.688;23.404;2023-04-25T02:50:05;94608.16;;;12.03;100.00
18167;BME280;9208;42.688;23.404;2023-04-25T02:52:30;94603.69;;;11.95;100.00
18167;BME280;9208;42.688;23.404;2023-04-25T02:54:56;94603.75;;;11.84;100.00
18167;BME280;9208;42.688;23.404;2023-04-25T02:57:21;94598.53;;;11.80;100.00
18167;BME280;9208;42.688;23.404;2023-04-25T02:59:47;94598.56;;;11.75;100.00
18167;BME280;9208;42.688;23.404;2023-04-25T03:02:12;94590.59;;;11.55;100.00
18167;BME280;9208;42.688;23.404;2023-04-25T03:04:38;94598.34;;;11.56;100.00
18167;BME280;9208;42.688;23.404;2023-04-25T03:07:06;94605.84;;;11.50;100.00
18167;BME280;9208;42.688;23.404;2023-04-25T03:09:31;94605.34;;;11.52;100.00
18167;BME280;9208;42.688;23.404;2023-04-25T03:11:57;94597.88;;;11.47;100.00
18167;BME280;9208;42.688;23.404;2023-04-25T03:14:22;94594.38;;;11.41;100.00
18167;BME280;9208;42.688;23.404;2023-04-25T03:16:47;94610.13;;;11.40;100.00
18167;BME280;9208;42.688;23.404;2023-04-25T03:19:13;94589.66;;;11.41;100.00
18167;BME280;9208;42.688;23.404;2023-04-25T03:21:41;94590.59;;;11.55;100.00
18167;BME280;9208;42.688;23.404;2023-04-25T03:24:06;94598.59;;;11.53;100.00
18167;BME280;9208;42.688;23.404;2023-04-25T03:26:32;94598.63;;;11.47;100.00
18167;BME280;9208;42.688;23.404;2023-04-25T03:28:57;94607.84;;;11.50;100.00
18167;BME280;9208;42.688;23.404;2023-04-25T03:31:22;94596.34;;;11.57;100.00
18167;BME280;9208;42.688;23.404;2023-04-25T03:33:48;94593.84;;;11.59;100.00
18167;BME280;9208;42.688;23.404;2023-04-25T03:36:13;94602.09;;;11.64;100.00
18167;BME280;9208;42.688;23.404;2023-04-25T03:38:39;94599.81;;;11.68;100.00
18167;BME280;9208;42.688;23.404;2023-04-25T03:41:06;94595.81;;;11.75;100.00
18167;BME280;9208;42.688;23.404;2023-04-25T03:43:31;94598.28;;;11.78;100.00
18167;BME280;9208;42.688;23.404;2023-04-25T03:45:57;94598.53;;;11.80;100.00
18167;BME280;9208;42.688;23.404;2023-04-25T03:48:22;94598.00;;;11.82;100.00
18167;BME280;9208;42.688;23.404;2023-04-25T03:50:50;94601.31;;;11.75;100.00
18167;BME280;9208;42.688;23.404;2023-04-25T03:53:15;94600.03;;;11.81;100.00
18167;BME280;9208;42.688;23.404;2023-04-25T03:55:41;94593.53;;;11.84;100.00
18167;BME280;9208;42.688;23.404;2023-04-25T03:58:07;94602.97;;;11.94;100.00
18167;BME280;9208;42.688;23.404;2023-04-25T04:00:33;94596.00;;;11.93;100.00
18167;BME280;9208;42.688;23.404;2023-04-25T04:02:59;94590.25;;;11.91;100.00
18167;BME280;9208;42.688;23.404;2023-04-25T04:05:24;94593.19;;;12.04;100.00
18167;BME280;9208;42.688;23.404;2023-04-25T04:07:49;94596.41;;;12.08;100.00
18167;BME280;9208;42.688;23.404;2023-04-25T04:10:15;94607.88;;;12.12;100.00
18167;BME280;9208;42.688;23.404;2023-04-25T04:12:40;94603.88;;;12.13;100.00
18167;BME280;9208;42.688;23.404;2023-04-25T04:15:07;94603.09;;;12.18;100.00
18167;BME280;9208;42.688;23.404;2023-04-25T04:17:33;94616.81;;;12.24;100.00
18167;BME280;9208;42.688;23.404;2023-04-25T04:19:58;94616.78;;;12.29;100.00
18167;BME280;9208;42.688;23.404;2023-04-25T04:22:24;94610.22;;;12.38;100.00
18167;BME280;9208;42.688;23.404;2023-04-25T04:24:50;94617.19;;;12.39;100.00
18167;BME280;9208;42.688;23.404;2023-04-25T04:27:19;94611.19;;;12.40;100.00
18167;BME280;9208;42.688;23.404;2023-04-25T04:29:45;94609.41;;;12.48;100.00
18167;BME280;9208;42.688;23.404;2023-04-25T04:32:12;94609.88;;;12.52;100.00
18167;BME280;9208;42.688;23.404;2023-04-25T04:34:37;94613.34;;;12.53;100.00
18167;BME280;9208;42.688;23.404;2023-04-25T04:37:04;94609.09;;;12.57;100.00
18167;BME280;9208;42.688;23.404;2023-04-25T04:39:30;94608.34;;;12.57;100.00
18167;BME280;9208;42.688;23.404;2023-04-25T04:41:55;94605.38;;;12.55;100.00
18167;BME280;9208;42.688;23.404;2023-04-25T04:44:21;94599.31;;;12.62;100.00
18167;BME280;9208;42.688;23.404;2023-04-25T04:46:46;94606.34;;;12.57;100.00
18167;BME280;9208;42.688;23.404;2023-04-25T04:49:12;94600.84;;;12.57;100.00
18167;BME280;9208;42.688;23.404;2023-04-25T04:51:40;94612.25;;;12.67;100.00
18167;BME280;9208;42.688;23.404;2023-04-25T04:54:06;94607.75;;;12.69;100.00
18167;BME280;9208;42.688;23.404;2023-04-25T04:56:32;94611.78;;;12.63;100.00
18167;BME280;9208;42.688;23.404;2023-04-25T04:58:58;94612.81;;;12.60;100.00
18167;BME280;9208;42.688;23.404;2023-04-25T05:01:24;94621.81;;;12.60;100.00
18167;BME280;9208;42.688;23.404;2023-04-25T05:03:49;94625.75;;;12.70;100.00
18167;BME280;9208;42.688;23.404;2023-04-25T05:06:16;94623.03;;;12.65;100.00
18167;BME280;9208;42.688;23.404;2023-04-25T05:08:42;94628.75;;;12.67;100.00
18167;BME280;9208;42.688;23.404;2023-04-25T05:11:07;94635.28;;;12.64;100.00
18167;BME280;9208;42.688;23.404;2023-04-25T05:13:33;94626.25;;;12.69;100.00
18167;BME280;9208;42.688;23.404;2023-04-25T05:15:58;94633.47;;;12.72;100.00
18167;BME280;9208;42.688;23.404;2023-04-25T05:18:23;94643.22;;;12.73;100.00
18167;BME280;9208;42.688;23.404;2023-04-25T05:20:49;94647.69;;;12.76;100.00
18167;BME280;9208;42.688;23.404;2023-04-25T05:23:14;94648.66;;;12.78;100.00
18167;BME280;9208;42.688;23.404;2023-04-25T05:25:40;94647.63;;;12.87;100.00
18167;BME280;9208;42.688;23.404;2023-04-25T05:28:05;94642.59;;;12.91;100.00
18167;BME280;9208;42.688;23.404;2023-04-25T05:30:31;94632.31;;;12.91;100.00
18167;BME280;9208;42.688;23.404;2023-04-25T05:32:56;94631.53;;;12.96;100.00
18167;BME280;9208;42.688;23.404;2023-04-25T05:35:22;94631.31;;;13.00;100.00
18167;BME280;9208;42.688;23.404;2023-04-25T05:37:47;94629.28;;;13.00;100.00
18167;BME280;9208;42.688;23.404;2023-04-25T05:40:13;94635.03;;;13.02;100.00
18167;BME280;9208;42.688;23.404;2023-04-25T05:42:39;94635.03;;;13.02;100.00
18167;BME280;9208;42.688;23.404;2023-04-25T05:45:04;94640.03;;;13.04;100.00
18167;BME280;9208;42.688;23.404;2023-04-25T05:47:30;94635.97;;;13.10;100.00
18167;BME280;9208;42.688;23.404;2023-04-25T05:49:55;94623.22;;;13.07;100.00
18167;BME280;9208;42.688;23.404;2023-04-25T05:52:21;94627.13;;;13.17;100.00
18167;BME280;9208;42.688;23.404;2023-04-25T05:54:46;94629.38;;;13.19;100.00
18167;BME280;9208;42.688;23.404;2023-04-25T05:57:25;94634.41;;;13.15;100.00
18167;BME280;9208;42.688;23.404;2023-04-25T05:59:51;94632.47;;;13.10;100.00
18167;BME280;9208;42.688;23.404;2023-04-25T06:02:18;94628.91;;;13.15;100.00
18167;BME280;9208;42.688;23.404;2023-04-25T06:04:44;94635.19;;;13.15;100.00
18167;BME280;9208;42.688;23.404;2023-04-25T06:07:09;94633.63;;;13.20;100.00
18167;BME280;9208;42.688;23.404;2023-04-25T06:09:35;94636.34;;;13.25;100.00
18167;BME280;9208;42.688;23.404;2023-04-25T06:12:01;94636.28;;;13.31;100.00
18167;BME280;9208;42.688;23.404;2023-04-25T06:14:27;94633.94;;;13.40;100.00
18167;BME280;9208;42.688;23.404;2023-04-25T06:16:52;94632.41;;;13.45;100.00
18167;BME280;9208;42.688;23.404;2023-04-25T06:19:17;94640.06;;;13.52;100.00
18167;BME280;9208;42.688;23.404;2023-04-25T06:21:44;94642.00;;;13.57;100.00
18167;BME280;9208;42.688;23.404;2023-04-25T06:24:09;94637.22;;;13.63;100.00
18167;BME280;9208;42.688;23.404;2023-04-25T06:26:35;94635.59;;;13.73;100.00
18167;BME280;9208;42.688;23.404;2023-04-25T06:29:00;94647.69;;;13.88;100.00
18167;BME280;9208;42.688;23.404;2023-04-25T06:31:25;94646.38;;;13.95;100.00
18167;BME280;9208;42.688;23.404;2023-04-25T06:33:51;94653.63;;;13.98;100.00
18167;BME280;9208;42.688;23.404;2023-04-25T06:36:22;94652.63;;;13.95;100.00
18167;BME280;9208;42.688;23.404;2023-04-25T06:38:51;94642.59;;;13.98;100.00
18167;BME280;9208;42.688;23.404;2023-04-25T06:41:16;94647.28;;;14.03;100.00
18167;BME280;9208;42.688;23.404;2023-04-25T06:43:42;94641.47;;;14.06;100.00
18167;BME280;9208;42.688;23.404;2023-04-25T06:46:07;94639.69;;;14.09;100.00
18167;BME280;9208;42.688;23.404;2023-04-25T06:48:33;94655.47;;;14.08;100.00
18167;BME280;9208;42.688;23.404;2023-04-25T06:50:58;94651.00;;;14.05;100.00
18167;BME280;9208;42.688;23.404;2023-04-25T06:53:23;94652.50;;;14.06;100.00
18167;BME280;9208;42.688;23.404;2023-04-25T06:55:49;94653.81;;;14.00;100.00
18167;BME280;9208;42.688;23.404;2023-04-25T06:58:15;94654.28;;;14.04;100.00
18167;BME280;9208;42.688;23.404;2023-04-25T07:00:43;94655.00;;;14.04;100.00
18167;BME280;9208;42.688;23.404;2023-04-25T07:03:08;94646.97;;;14.06;100.00
18167;BME280;9208;42.688;23.404;2023-04-25T07:05:33;94657.94;;;14.12;100.00
18167;BME280;9208;42.688;23.404;2023-04-25T07:07:59;94645.19;;;14.09;100.00
18167;BME280;9208;42.688;23.404;2023-04-25T07:10:25;94649.84;;;14.19;100.00
18167;BME280;9208;42.688;23.404;2023-04-25T07:12:50;94645.59;;;14.18;100.00
18167;BME280;9208;42.688;23.404;2023-04-25T07:15:16;94650.31;;;14.23;100.00
18167;BME280;9208;42.688;23.404;2023-04-25T07:17:42;94647.31;;;14.21;100.00
18167;BME280;9208;42.688;23.404;2023-04-25T07:20:08;94646.59;;;14.21;100.00
18167;BME280;9208;42.688;23.404;2023-04-25T07:22:34;94643.53;;;14.24;100.00
18167;BME280;9208;42.688;23.404;2023-04-25T07:25:00;94642.28;;;14.20;100.00
18167;BME280;9208;42.688;23.404;2023-04-25T07:27:25;94640.09;;;14.18;100.00
18167;BME280;9208;42.688;23.404;2023-04-25T07:29:51;94650.13;;;14.16;100.00
18167;BME280;9208;42.688;23.404;2023-04-25T07:32:16;94645.66;;;14.13;100.00
18167;BME280;9208;42.688;23.404;2023-04-25T07:34:42;94640.91;;;14.13;100.00
18167;BME280;9208;42.688;23.404;2023-04-25T07:37:07;94640.09;;;14.18;100.00
18167;BME280;9208;42.688;23.404;2023-04-25T07:39:32;94641.09;;;14.21;100.00
18167;BME280;9208;42.688;23.404;2023-04-25T07:41:58;94647.03;;;14.25;100.00
18167;BME280;9208;42.688;23.404;2023-04-25T07:44:25;94635.72;;;14.28;100.00
18167;BME280;9208;42.688;23.404;2023-04-25T07:46:51;94639.50;;;14.25;100.00
18167;BME280;9208;42.688;23.404;2023-04-25T07:49:16;94639.44;;;14.31;100.00
18167;BME280;9208;42.688;23.404;2023-04-25T07:51:42;94634.59;;;14.37;100.00
18167;BME280;9208;42.688;23.404;2023-04-25T07:54:09;94638.03;;;14.43;100.00
18167;BME280;9208;42.688;23.404;2023-04-25T07:56:35;94631.19;;;14.49;100.00
18167;BME280;9208;42.688;23.404;2023-04-25T07:59:00;94625.50;;;14.42;100.00
18167;BME280;9208;42.688;23.404;2023-04-25T08:01:26;94622.66;;;14.47;100.00
18167;BME280;9208;42.688;23.404;2023-04-25T08:03:52;94620.34;;;14.51;100.00
18167;BME280;9208;42.688;23.404;2023-04-25T08:06:18;94631.06;;;14.55;100.00
18167;BME280;9208;42.688;23.404;2023-04-25T08:08:43;94629.28;;;14.57;100.00
18167;BME280;9208;42.688;23.404;2023-04-25T08:11:09;94619.38;;;14.49;100.00
18167;BME280;9208;42.688;23.404;2023-04-25T08:13:35;94626.47;;;14.63;100.00
18167;BME280;9208;42.688;23.404;2023-04-25T08:16:01;94632.09;;;14.70;100.00
18167;BME280;9208;42.688;23.404;2023-04-25T08:18:26;94630.84;;;14.71;100.00
18167;BME280;9208;42.688;23.404;2023-04-25T08:20:51;94627.56;;;14.73;100.00
18167;BME280;9208;42.688;23.404;2023-04-25T08:23:17;94627.56;;;14.73;100.00
18167;BME280;9208;42.688;23.404;2023-04-25T08:25:42;94618.06;;;14.87;100.00
18167;BME280;9208;42.688;23.404;2023-04-25T08:28:08;94610.66;;;14.95;100.00
18167;BME280;9208;42.688;23.404;2023-04-25T08:30:33;94609.22;;;15.07;100.00
18167;BME280;9208;42.688;23.404;2023-04-25T08:32:59;94613.91;;;15.12;100.00
18167;BME280;9208;42.688;23.404;2023-04-25T08:35:24;94603.72;;;15.20;100.00
18167;BME280;9208;42.688;23.404;2023-04-25T08:37:50;94594.44;;;15.36;100.00
18167;BME280;9208;42.688;23.404;2023-04-25T08:40:16;94585.63;;;15.50;100.00
18167;BME280;9208;42.688;23.404;2023-04-25T08:42:42;94602.53;;;15.60;100.00
18167;BME280;9208;42.688;23.404;2023-04-25T08:45:09;94617.09;;;15.73;100.00
18167;BME280;9208;42.688;23.404;2023-04-25T08:47:37;94606.81;;;15.74;100.00
18167;BME280;9208;42.688;23.404;2023-04-25T08:50:04;94612.50;;;15.63;100.00
18167;BME280;9208;42.688;23.404;2023-04-25T08:52:36;94616.56;;;15.62;100.00
18167;BME280;9208;42.688;23.404;2023-04-25T08:55:02;94643.75;;;15.58;100.00
18167;BME280;9208;42.688;23.404;2023-04-25T08:57:31;94623.34;;;15.16;100.00
18167;BME280;9208;42.688;23.404;2023-04-25T08:59:57;94635.22;;;15.11;100.00
18167;BME280;9208;42.688;23.404;2023-04-25T09:02:24;94629.78;;;14.93;100.00
18167;BME280;9208;42.688;23.404;2023-04-25T09:04:50;94618.84;;;15.00;100.00
18167;BME280;9208;42.688;23.404;2023-04-25T09:07:15;94611.09;;;14.99;100.00
18167;BME280;9208;42.688;23.404;2023-04-25T09:09:43;94599.84;;;14.97;100.00
18167;BME280;9208;42.688;23.404;2023-04-25T09:12:09;94596.22;;;14.89;100.00
18167;BME280;9208;42.688;23.404;2023-04-25T09:14:35;94598.78;;;15.00;100.00
18167;BME280;9208;42.688;23.404;2023-04-25T09:17:02;94593.38;;;14.94;100.00
18167;BME280;9208;42.688;23.404;2023-04-25T09:19:31;94591.13;;;14.93;100.00
18167;BME280;9208;42.688;23.404;2023-04-25T09:21:58;94582.63;;;14.91;100.00
18167;BME280;9208;42.688;23.404;2023-04-25T09:26:58;94578.75;;;14.99;100.00
18167;BME280;9208;42.688;23.404;2023-04-25T09:29:34;94581.69;;;15.01;100.00
18167;BME280;9208;42.688;23.404;2023-04-25T09:32:26;94576.41;;;15.03;100.00
18167;BME280;9208;42.688;23.404;2023-04-25T09:34:56;94569.81;;;15.06;100.00
18167;BME280;9208;42.688;23.404;2023-04-25T09:37:26;94579.63;;;15.20;100.00
18167;BME280;9208;42.688;23.404;2023-04-25T09:39:57;94578.69;;;15.31;100.00
18167;BME280;9208;42.688;23.404;2023-04-25T09:42:25;94581.06;;;15.40;100.00
18167;BME280;9208;42.688;23.404;2023-04-25T09:44:53;94583.31;;;15.54;100.00
18167;BME280;9208;42.688;23.404;2023-04-25T09:47:19;94579.38;;;15.63;100.00
18167;BME280;9208;42.688;23.404;2023-04-25T09:49:47;94582.22;;;15.70;100.00
18167;BME280;9208;42.688;23.404;2023-04-25T09:52:21;94568.13;;;15.74;100.00
18167;BME280;9208;42.688;23.404;2023-04-25T09:54:47;94573.75;;;15.81;100.00
18167;BME280;9208;42.688;23.404;2023-04-25T09:57:18;94575.75;;;15.94;100.00
18167;BME280;9208;42.688;23.404;2023-04-25T09:59:46;94575.09;;;16.01;100.00
18167;BME280;9208;42.688;23.404;2023-04-25T10:02:13;94577.22;;;15.95;100.00
18167;BME280;9208;42.688;23.404;2023-04-25T10:04:40;94577.22;;;15.95;100.00
18167;BME280;9208;42.688;23.404;2023-04-25T10:07:07;94589.66;;;16.01;100.00
18167;BME280;9208;42.688;23.404;2023-04-25T10:09:33;94586.25;;;15.95;100.00
18167;BME280;9208;42.688;23.404;2023-04-25T10:12:03;94586.25;;;15.95;100.00
18167;BME280;9208;42.688;23.404;2023-04-25T10:14:31;94576.59;;;16.02;100.00
18167;BME280;9208;42.688;23.404;2023-04-25T10:16:58;94573.19;;;16.09;100.00
18167;BME280;9208;42.688;23.404;2023-04-25T10:19:25;94564.88;;;16.09;100.00
18167;BME280;9208;42.688;23.404;2023-04-25T10:21:54;94545.41;;;16.14;100.00
18167;BME280;9208;42.688;23.404;2023-04-25T10:24:21;94558.34;;;16.19;100.00
18167;BME280;9208;42.688;23.404;2023-04-25T10:26:47;94571.44;;;16.32;100.00
18167;BME280;9208;42.688;23.404;2023-04-25T10:29:21;94577.78;;;16.40;100.00
18167;BME280;9208;42.688;23.404;2023-04-25T10:31:47;94576.53;;;16.41;100.00
18167;BME280;9208;42.688;23.404;2023-04-25T10:34:13;94561.91;;;16.53;100.00
18167;BME280;9208;42.688;23.404;2023-04-25T10:36:38;94575.81;;;16.61;100.00
18167;BME280;9208;42.688;23.404;2023-04-25T10:39:05;94586.13;;;16.60;100.00
18167;BME280;9208;42.688;23.404;2023-04-25T10:41:47;94603.53;;;16.48;100.00
18167;BME280;9208;42.688;23.404;2023-04-25T10:44:13;94595.50;;;15.85;100.00
18167;BME280;9208;42.688;23.404;2023-04-25T10:46:38;94590.44;;;15.18;100.00
18167;BME280;9208;42.688;23.404;2023-04-25T10:49:04;94585.69;;;14.87;100.00
18167;BME280;9208;42.688;23.404;2023-04-25T10:51:31;94594.97;;;14.71;100.00
18167;BME280;9208;42.688;23.404;2023-04-25T10:54:06;94597.59;;;14.64;100.00
18167;BME280;9208;42.688;23.404;2023-04-25T10:56:33;94589.72;;;14.55;100.00
18167;BME280;9208;42.688;23.404;2023-04-25T10:59:13;94590.59;;;14.63;100.00
18167;BME280;9208;42.688;23.404;2023-04-25T11:01:51;94589.38;;;14.77;100.00
18167;BME280;9208;42.688;23.404;2023-04-25T11:04:31;94584.88;;;14.92;100.00
18167;BME280;9208;42.688;23.404;2023-04-25T11:07:10;94582.03;;;14.98;100.00
18167;BME280;9208;42.688;23.404;2023-04-25T11:09:39;94578.63;;;15.05;100.00
18167;BME280;9208;42.688;23.404;2023-04-25T11:12:07;94571.84;;;15.19;100.00
18167;BME280;9208;42.688;23.404;2023-04-25T11:14:33;94563.31;;;15.35;100.00
18167;BME280;9208;42.688;23.404;2023-04-25T11:17:00;94565.97;;;15.54;100.00
18167;BME280;9208;42.688;23.404;2023-04-25T11:19:27;94552.69;;;15.52;100.00
18167;BME280;9208;42.688;23.404;2023-04-25T11:22:00;94557.16;;;15.55;100.00
18167;BME280;9208;42.688;23.404;2023-04-25T11:24:34;94554.72;;;15.65;100.00
18167;BME280;9208;42.688;23.404;2023-04-25T11:27:01;94543.78;;;15.72;100.00
18167;BME280;9208;42.688;23.404;2023-04-25T11:29:30;94534.63;;;15.77;100.00
18167;BME280;9208;42.688;23.404;2023-04-25T11:31:56;94537.03;;;15.94;100.00
18167;BME280;9208;42.688;23.404;2023-04-25T11:34:23;94540.22;;;15.98;100.00
18167;BME280;9208;42.688;23.404;2023-04-25T11:36:50;94534.78;;;16.05;100.00
18167;BME280;9208;42.688;23.404;2023-04-25T11:39:15;94532.78;;;16.06;100.00
18167;BME280;9208;42.688;23.404;2023-04-25T11:41:41;94536.91;;;16.12;100.00
18167;BME280;9208;42.688;23.404;2023-04-25T11:44:07;94550.63;;;16.18;100.00
18167;BME280;9208;42.688;23.404;2023-04-25T11:46:36;94556.22;;;16.25;100.00
18167;BME280;9208;42.688;23.404;2023-04-25T11:49:02;94551.72;;;16.35;100.00
18167;BME280;9208;42.688;23.404;2023-04-25T11:51:29;94559.06;;;16.46;100.00
18167;BME280;9208;42.688;23.404;2023-04-25T11:53:56;94548.91;;;16.61;100.00
18167;BME280;9208;42.688;23.404;2023-04-25T11:56:22;94550.38;;;16.62;100.00
18167;BME280;9208;42.688;23.404;2023-04-25T11:58:57;94551.31;;;16.65;100.00
18167;BME280;9208;42.688;23.404;2023-04-25T12:01:28;94540.25;;;16.65;100.00
18167;BME280;9208;42.688;23.404;2023-04-25T12:03:53;94537.84;;;16.61;100.00
18167;BME280;9208;42.688;23.404;2023-04-25T12:06:19;94542.72;;;16.55;100.00
18167;BME280;9208;42.688;23.404;2023-04-25T12:09:11;94547.72;;;16.57;100.00
18167;BME280;9208;42.688;23.404;2023-04-25T12:11:46;94533.25;;;16.64;100.00
18167;BME280;9208;42.688;23.404;2023-04-25T12:14:20;94539.66;;;16.59;100.00
18167;BME280;9208;42.688;23.404;2023-04-25T12:16:48;94536.88;;;16.59;100.00
18167;BME280;9208;42.688;23.404;2023-04-25T12:19:14;94543.16;;;16.59;100.00
18167;BME280;9208;42.688;23.404;2023-04-25T12:21:40;94541.25;;;16.54;100.00
18167;BME280;9208;42.688;23.404;2023-04-25T12:24:14;94543.38;;;16.61;100.00
18167;BME280;9208;42.688;23.404;2023-04-25T12:26:55;94541.84;;;16.60;100.00
18167;BME280;9208;42.688;23.404;2023-04-25T12:29:25;94527.50;;;16.62;100.00
18167;BME280;9208;42.688;23.404;2023-04-25T12:31:52;94521.16;;;16.54;100.00
18167;BME280;9208;42.688;23.404;2023-04-25T12:34:19;94536.66;;;16.57;100.00
18167;BME280;9208;42.688;23.404;2023-04-25T12:36:45;94533.72;;;16.55;100.00
18167;BME280;9208;42.688;23.404;2023-04-25T12:39:19;94551.38;;;16.52;100.00
18167;BME280;9208;42.688;23.404;2023-04-25T12:41:45;94591.50;;;16.45;100.00
18167;BME280;9208;42.688;23.404;2023-04-25T12:44:11;94602.47;;;16.38;100.00
18167;BME280;9208;42.688;23.404;2023-04-25T12:46:36;94604.09;;;16.20;100.00
18167;BME280;9208;42.688;23.404;2023-04-25T12:49:03;94616.03;;;16.02;100.00
18167;BME280;9208;42.688;23.404;2023-04-25T12:51:29;94593.94;;;15.76;100.00